Observations for LAS VEGAS MCCARRAN, NV (LAS)

KLAS 230956Z 19006KT 10SM CLR 31/M09 A2969 RMK AO2 SLP019 T03111083 
KLAS 230856Z 20005KT 10SM CLR 33/M11 A2969 RMK AO2 SLP021 T03281117 55004   
KLAS 230756Z 20004KT 10SM CLR 33/M11 A2969 RMK AO2 SLP020 T03331106 404170294   
KLAS 230656Z 21006KT 10SM FEW250 35/M11 A2970 RMK AO2 SLP023 T03501111  
KLAS 230556Z 24006KT 10SM SCT250 36/M10 A2971 RMK AO2 SLP024 T03611106 10411 20361 50005
KLAS 230456Z 23008KT 10SM FEW250 38/M07 A2971 RMK AO2 SLP025 T03831072  
KLAS 230356Z 22005KT 10SM FEW250 39/M04 A2970 RMK AO2 SLP022 T03941033  
KLAS 230256Z 20004KT 10SM FEW250 40/M03 A2969 RMK AO2 SLP019 T04061033 56011
KLAS 230156Z 00000KT 10SM FEW250 41/M03 A2969 RMK AO2 SLP021 T04111028  
KLAS 230056Z 04003KT 10SM FEW250 40/M02 A2970 RMK AO2 SLP023 T04001022  
KLAS 222356Z 08005KT 10SM FEW250 41/M02 A2972 RMK AO2 SLP031 T04111017 10417 20378 58026
KLAS 222256Z VRB03KT 10SM FEW250 42/01 A2975 RMK AO2 SLP039 T04170006   
KLAS 222156Z VRB03KT 10SM FEW250 40/01 A2978 RMK AO2 SLP050 T04000011   
KLAS 222056Z 00000KT 10SM FEW140 40/03 A2981 RMK AO2 SLP059 T03940028 58022 
KLAS 221956Z 09005KT 10SM FEW140 39/04 A2984 RMK AO2 SLP069 T03890039   
KLAS 221856Z 34005KT 10SM FEW140 39/04 A2986 RMK AO2 SLP075 T03890039   
KLAS 221756Z 00000KT 10SM CLR 38/04 A2988 RMK AO2 SLP081 T03780039 10378 20294 58001
KLAS 221656Z 05012G15KT 10SM CLR 37/04 A2988 RMK AO2 SLP084 T03670039   
KLAS 221556Z 35010KT 10SM CLR 33/M02 A2989 RMK AO2 SLP087 T03331017 
KLAS 221456Z 16003KT 10SM CLR 30/M06 A2988 RMK AO2 SLP084 T03001056 51020   
KLAS 221356Z 20004KT 10SM CLR 30/M05 A2986 RMK AO2 SLP076 T03001044 
KLAS 221256Z 21005KT 10SM CLR 31/M08 A2984 RMK AO2 SLP070 T03061078 
KLAS 221156Z 22005KT 10SM CLR 31/M08 A2982 RMK AO2 SLP061 T03061083 10372 20306 53019   
KLAS 221056Z 00000KT 10SM CLR 32/M08 A2980 RMK AO2 SLP055 T03171083 
KLAS 220956Z 20004KT 10SM CLR 33/M08 A2977 RMK AO2 SLP045 T03281083